CA-0156 weather

CLOSED Hartney Airport
Manitoba, Canada

Public forecast

Using degrees Celsius for public forecast. Weather courtesy of forecast.io.

Closest aviation weather report (METAR) to Hartney Airport

Closest report is Brandon Municipal Airport, 35.3 nm (65.3 km) NE. Retrieved 2020/02/20 04:00 UTC (27 minutes ago):

CYBR 200400Z 24008KT 15SM SKC M24/M28 A3054 RMK SLP399

Closest aviation forecast (TAF) to Hartney Airport

Closest forecast is Brandon Municipal Airport, 35.3 nm (65.3 km) NE. Retrieved 2020-02-20 00:39 UTC (4 hours ago):

TAF CYBR 192338Z 2000/2012 25006KT P6SM SKC BECMG 2001/2003 26012KT RMK NXT FCST BY 200600Z